Alba, Missouri
Current Conditions -  °F | °C
As of 9:53 AM on Friday 19 Dec 2014 (Local Time) from KJLN Reporting Station
Moderate Fog Moderate Fog  
Wind Chill: 32°   Ceiling: 200
Heat Index: 36°   Visibility: 0.5mi
Dew Point: 36°   Wind: 5mph
Humidity: 100%   Direction: 30°NNE
Pressure: 30.26"   Gusts: NA
Location:  37.24°N, 94.42°W
Report Text: KJLN 191553Z 03004KT 1/2SM FG VV002 02/02 A3026 RMK AO2 SLP253 T00220022
Loading
Personal Weather Stations






























Interactive Weather Map New forecast layout! Learn more

10-Day Weather Forecast

Advertisements
Track Severe Weather on mobile